Time;durP1;ratioP1;P1;durP2;ratioP2;P2;SDS_P1;SDS_P2;PMS_P1;PMS_P2;Temp;Humidity;BMP_temperature;BMP_pressure;BME280_temperature;BME280_humidity;BME280_pressure;Samples;Min_cycle;Max_cycle;Signal;HPM_P1;HPM_P2
2022/07/24 00:00:07;;;;;;;6.38;5.78;;;25.30;63.90;;;;;;4993123;28;20418;-68
2022/07/24 00:02:33;;;;;;;6.38;5.78;;;25.30;63.90;;;;;;4993813;28;20935;-68
2022/07/24 00:05:01;;;;;;;6.50;5.90;;;25.30;63.90;;;;;;4993706;28;20423;-69
2022/07/24 00:07:28;;;;;;;6.53;5.82;;;25.30;63.90;;;;;;4992092;28;20900;-69
2022/07/24 00:09:54;;;;;;;6.88;5.80;;;25.30;64.00;;;;;;4992668;28;20487;-68
2022/07/24 00:12:20;;;;;;;6.68;6.00;;;25.30;64.40;;;;;;4994126;28;20410;-69
2022/07/24 00:14:47;;;;;;;7.22;5.93;;;25.30;64.20;;;;;;4993496;28;20754;-68
2022/07/24 00:17:13;;;;;;;6.90;6.20;;;25.40;64.50;;;;;;4993153;28;20418;-68
2022/07/24 00:19:39;;;;;;;6.40;5.80;;;25.40;64.60;;;;;;4993183;28;20474;-68
2022/07/24 00:22:04;;;;;;;6.73;5.90;;;25.40;64.50;;;;;;4993325;28;20477;-68
2022/07/24 00:24:30;;;;;;;7.32;5.78;;;25.40;64.30;;;;;;4992037;28;20383;-68
2022/07/24 00:26:56;;;;;;;8.30;6.17;;;25.40;64.20;;;;;;5008100;28;20434;-68
2022/07/24 00:29:21;;;;;;;8.15;6.20;;;25.30;64.10;;;;;;4991674;28;20382;-69
2022/07/24 00:31:47;;;;;;;7.47;5.80;;;25.30;64.10;;;;;;5008419;28;20403;-68
2022/07/24 00:34:13;;;;;;;8.13;6.53;;;25.40;64.10;;;;;;4993494;28;20899;-69
2022/07/24 00:36:41;;;;;;;6.82;6.03;;;25.30;64.00;;;;;;5008320;28;20461;-68
2022/07/24 00:39:07;;;;;;;7.18;5.97;;;25.40;64.10;;;;;;5008559;28;20950;-68
2022/07/24 00:41:33;;;;;;;6.40;5.80;;;25.30;64.00;;;;;;4992775;28;20446;-69
2022/07/24 00:44:10;;;;;;;7.63;6.43;;;25.30;64.00;;;;;;4993225;28;20895;-69
2022/07/24 00:46:41;;;;;;;6.93;6.28;;;25.30;64.00;;;;;;4993186;28;20456;-68
2022/07/24 00:49:10;;;;;;;7.00;6.30;;;25.30;63.90;;;;;;4993090;28;20390;-69
2022/07/24 00:51:35;;;;;;;8.48;5.97;;;25.30;64.00;;;;;;4992292;28;20387;-68
2022/07/24 00:54:05;;;;;;;7.03;6.32;;;25.30;63.90;;;;;;4992975;28;20399;-69
2022/07/24 00:56:31;;;;;;;7.03;6.32;;;25.30;63.90;;;;;;4992750;28;20773;-68
2022/07/24 00:58:57;;;;;;;7.00;6.30;;;25.30;63.90;;;;;;4992908;28;20383;-68
2022/07/24 01:01:23;;;;;;;6.70;6.00;;;25.30;63.90;;;;;;4992435;28;20756;-69
2022/07/24 01:03:49;;;;;;;6.95;5.93;;;25.30;63.90;;;;;;4992850;28;20390;-68
2022/07/24 01:06:15;;;;;;;6.28;5.68;;;25.30;63.90;;;;;;4992529;28;20394;-69
2022/07/24 01:08:42;;;;;;;6.93;6.33;;;25.30;63.80;;;;;;5007173;28;20395;-68
2022/07/24 01:11:09;;;;;;;6.70;6.10;;;25.30;63.90;;;;;;4992035;28;20390;-68
2022/07/24 01:13:36;;;;;;;6.82;6.13;;;25.30;63.80;;;;;;4992177;28;20387;-68
2022/07/24 01:16:02;;;;;;;6.90;6.15;;;25.30;63.70;;;;;;4992620;28;20477;-68
2022/07/24 01:18:27;;;;;;;7.05;6.35;;;25.30;63.80;;;;;;4991110;28;20399;-68
2022/07/24 01:20:55;;;;;;;7.03;6.33;;;25.30;63.80;;;;;;4991420;28;20765;-68
2022/07/24 01:23:21;;;;;;;6.90;6.20;;;25.30;63.80;;;;;;4990861;28;20399;-68
2022/07/24 01:25:47;;;;;;;6.68;5.97;;;25.30;63.80;;;;;;4991293;28;20401;-69
2022/07/24 01:28:13;;;;;;;7.53;6.20;;;25.30;63.80;;;;;;4991188;28;20410;-68
2022/07/24 01:30:39;;;;;;;6.97;6.28;;;25.30;63.80;;;;;;4992529;28;20410;-68
2022/07/24 01:33:04;;;;;;;7.00;6.30;;;25.30;63.70;;;;;;4992393;28;20395;-68
2022/07/24 01:35:30;;;;;;;6.80;6.10;;;25.30;63.80;;;;;;4990368;28;20417;-68
2022/07/24 01:37:56;;;;;;;6.60;6.00;;;25.30;63.80;;;;;;4992267;28;20505;-68
2022/07/24 01:40:22;;;;;;;6.70;6.00;;;25.30;63.70;;;;;;4992246;28;20399;-69
2022/07/24 01:42:48;;;;;;;6.82;6.13;;;25.30;63.70;;;;;;4992235;28;20405;-68
2022/07/24 01:45:14;;;;;;;7.13;6.35;;;25.30;63.80;;;;;;4990816;28;20386;-68
2022/07/24 01:47:41;;;;;;;6.57;5.97;;;25.30;63.80;;;;;;4990553;28;20399;-68
2022/07/24 01:50:07;;;;;;;7.07;6.38;;;25.30;63.70;;;;;;4992097;28;20481;-68
2022/07/24 01:52:33;;;;;;;6.60;6.00;;;25.30;63.70;;;;;;4990539;28;20406;-68
2022/07/24 01:54:58;;;;;;;6.57;5.97;;;25.30;63.70;;;;;;4992054;28;20390;-68
2022/07/24 01:57:24;;;;;;;7.63;6.20;;;25.30;63.70;;;;;;4989891;28;20422;-68
2022/07/24 01:59:50;;;;;;;6.78;6.05;;;25.30;63.80;;;;;;4992041;28;20405;-68
2022/07/24 02:02:16;;;;;;;6.90;6.20;;;25.30;63.70;;;;;;4991746;28;20403;-68
2022/07/24 02:04:41;;;;;;;6.88;6.28;;;25.30;63.70;;;;;;4990614;28;20410;-68
2022/07/24 02:07:07;;;;;;;6.90;6.20;;;25.30;63.70;;;;;;4991922;28;20395;-68
2022/07/24 02:09:32;;;;;;;6.73;6.03;;;25.30;63.70;;;;;;4991518;28;20386;-68
2022/07/24 02:11:58;;;;;;;6.72;5.90;;;25.30;63.80;;;;;;4991945;28;20757;-68
2022/07/24 02:14:24;;;;;;;6.43;5.82;;;25.30;63.80;;;;;;4991873;28;20478;-68
2022/07/24 02:16:49;;;;;;;6.93;6.27;;;25.30;63.80;;;;;;4990572;28;20824;-68
2022/07/24 02:19:15;;;;;;;6.60;6.00;;;25.30;63.80;;;;;;4991870;28;20417;-68
2022/07/24 02:21:41;;;;;;;7.40;6.68;;;25.30;63.80;;;;;;4991667;28;20390;-68
2022/07/24 02:24:06;;;;;;;6.90;6.20;;;25.30;63.80;;;;;;4995148;28;20390;-68
2022/07/24 02:26:32;;;;;;;6.95;6.35;;;25.30;63.80;;;;;;4995423;28;20884;-68
2022/07/24 02:28:58;;;;;;;6.72;6.13;;;25.30;63.80;;;;;;4995644;28;20386;-68
2022/07/24 02:31:24;;;;;;;6.57;5.90;;;25.30;63.80;;;;;;4994996;28;20912;-68
2022/07/24 02:33:49;;;;;;;6.30;5.70;;;25.30;63.80;;;;;;4995940;28;20472;-68
2022/07/24 02:36:15;;;;;;;6.90;6.20;;;25.30;63.80;;;;;;4995392;28;20450;-68
2022/07/24 02:38:42;;;;;;;6.63;5.93;;;25.30;63.80;;;;;;4995474;28;20482;-68
2022/07/24 02:41:08;;;;;;;6.60;6.00;;;25.30;63.70;;;;;;4995439;28;20919;-68
2022/07/24 02:43:34;;;;;;;6.60;6.00;;;25.30;63.80;;;;;;4995015;28;20401;-68
2022/07/24 02:45:59;;;;;;;7.00;6.30;;;25.20;63.70;;;;;;4994183;28;20424;-68
2022/07/24 02:48:25;;;;;;;6.50;5.90;;;25.30;63.80;;;;;;4994018;28;20493;-68
2022/07/24 02:50:51;;;;;;;6.63;5.93;;;25.20;63.70;;;;;;4995309;28;20399;-67
2022/07/24 02:53:16;;;;;;;6.97;6.27;;;25.30;63.70;;;;;;4994942;28;20477;-68
2022/07/24 02:55:42;;;;;;;6.50;5.80;;;25.30;63.70;;;;;;4994605;28;20426;-68
2022/07/24 02:58:07;;;;;;;6.73;6.10;;;25.20;63.70;;;;;;4995153;28;20481;-68
2022/07/24 03:00:33;;;;;;;6.87;6.17;;;25.20;63.70;;;;;;4995126;28;20403;-68
2022/07/24 03:02:59;;;;;;;7.30;6.60;;;25.30;63.70;;;;;;4995101;28;20907;-68
2022/07/24 03:05:25;;;;;;;6.17;5.57;;;25.20;63.70;;;;;;4994796;28;20406;-68
2022/07/24 03:07:50;;;;;;;6.60;5.93;;;25.20;63.70;;;;;;4994758;28;20395;-68
2022/07/24 03:10:16;;;;;;;7.30;6.60;;;25.30;63.70;;;;;;4994928;28;20394;-68
2022/07/24 03:12:42;;;;;;;6.70;6.00;;;25.20;63.70;;;;;;4994915;28;20394;-68
2022/07/24 03:15:09;;;;;;;6.60;5.90;;;25.20;63.70;;;;;;4994767;28;20823;-68
2022/07/24 03:17:35;;;;;;;7.10;6.43;;;25.20;63.70;;;;;;4994311;28;20749;-68
2022/07/24 03:20:02;;;;;;;7.43;6.38;;;25.20;63.70;;;;;;4993508;28;20429;-68
2022/07/24 03:22:27;;;;;;;6.80;6.10;;;25.20;63.60;;;;;;4994721;28;20399;-68
2022/07/24 03:24:53;;;;;;;6.47;5.93;;;25.20;63.60;;;;;;4993486;28;20401;-68
2022/07/24 03:27:19;;;;;;;6.83;6.13;;;25.20;63.60;;;;;;4994536;28;20414;-68
2022/07/24 03:29:45;;;;;;;6.78;6.10;;;25.20;63.70;;;;;;4994355;28;20469;-68
2022/07/24 03:32:10;;;;;;;6.88;6.28;;;25.20;63.60;;;;;;4994229;28;20423;-68
2022/07/24 03:34:36;;;;;;;7.07;6.40;;;25.20;63.60;;;;;;4994201;28;20481;-68
2022/07/24 03:37:02;;;;;;;6.90;6.20;;;25.20;63.60;;;;;;4993145;28;20422;-68
2022/07/24 03:39:28;;;;;;;6.82;6.22;;;25.20;63.60;;;;;;4994062;28;20391;-68
2022/07/24 03:41:53;;;;;;;6.60;6.00;;;25.20;63.60;;;;;;4994370;28;20465;-68
2022/07/24 03:44:19;;;;;;;6.93;6.25;;;25.20;63.60;;;;;;4994262;28;20422;-68
2022/07/24 03:46:45;;;;;;;6.85;6.25;;;25.20;63.60;;;;;;4994242;28;20470;-68
2022/07/24 03:49:10;;;;;;;6.83;6.03;;;25.20;63.60;;;;;;4994096;28;20398;-68
2022/07/24 03:51:36;;;;;;;6.68;6.05;;;25.30;63.60;;;;;;4993548;28;20390;-67
2022/07/24 03:54:02;;;;;;;7.28;6.57;;;25.20;63.60;;;;;;4993642;28;20394;-68
2022/07/24 03:56:28;;;;;;;6.82;6.20;;;25.20;63.60;;;;;;4993779;28;20497;-68
2022/07/24 03:58:54;;;;;;;6.73;6.13;;;25.20;63.60;;;;;;4992893;28;20390;-68
2022/07/24 04:01:21;;;;;;;6.70;6.10;;;25.20;63.60;;;;;;4993808;28;20398;-68
2022/07/24 04:03:47;;;;;;;7.15;6.45;;;25.20;63.50;;;;;;4993568;28;20434;-68
2022/07/24 04:06:13;;;;;;;6.63;6.00;;;25.20;63.60;;;;;;4993827;28;20430;-68
2022/07/24 04:08:38;;;;;;;6.30;5.70;;;25.20;63.60;;;;;;4993618;28;20490;-68
2022/07/24 04:11:04;;;;;;;7.03;6.20;;;25.20;63.50;;;;;;4992587;28;20437;-68
2022/07/24 04:13:31;;;;;;;6.20;5.60;;;25.20;63.60;;;;;;4992143;28;20390;-68
2022/07/24 04:15:57;;;;;;;7.18;6.50;;;25.20;63.60;;;;;;4993767;28;20433;-68
2022/07/24 04:18:23;;;;;;;6.88;6.28;;;25.20;63.60;;;;;;4993684;28;20387;-68
2022/07/24 04:20:48;;;;;;;6.30;5.80;;;25.20;63.60;;;;;;4992343;28;20407;-68
2022/07/24 04:23:15;;;;;;;6.65;6.05;;;25.20;63.50;;;;;;4992286;28;20902;-68
2022/07/24 04:25:41;;;;;;;6.57;5.97;;;25.20;63.50;;;;;;4991914;28;20430;-68
2022/07/24 04:28:06;;;;;;;6.85;6.25;;;25.20;63.60;;;;;;4993409;28;20468;-68
2022/07/24 04:30:32;;;;;;;7.32;6.68;;;25.20;63.50;;;;;;4993411;28;20449;-68
2022/07/24 04:32:58;;;;;;;6.60;6.00;;;25.20;63.60;;;;;;4992081;28;20403;-68
2022/07/24 04:35:24;;;;;;;6.47;5.87;;;25.20;63.50;;;;;;4991706;28;20463;-68
2022/07/24 04:37:50;;;;;;;6.68;6.07;;;25.20;63.50;;;;;;4991650;28;20409;-68
2022/07/24 04:40:16;;;;;;;6.55;5.95;;;25.20;63.50;;;;;;4993250;28;20830;-68
2022/07/24 04:42:41;;;;;;;6.87;6.27;;;25.20;63.50;;;;;;4991942;28;20407;-68
2022/07/24 04:45:09;;;;;;;6.75;6.05;;;25.20;63.50;;;;;;4991969;28;20426;-68
2022/07/24 04:47:35;;;;;;;7.03;6.40;;;25.20;63.50;;;;;;4991439;28;20410;-68
2022/07/24 04:50:01;;;;;;;6.35;5.75;;;25.10;63.50;;;;;;4993115;28;20401;-67
2022/07/24 04:52:27;;;;;;;6.45;5.85;;;25.20;63.60;;;;;;4992817;28;20401;-68
2022/07/24 04:54:53;;;;;;;6.28;5.68;;;25.20;63.60;;;;;;4992896;28;20935;-68
2022/07/24 04:57:18;;;;;;;6.03;5.53;;;25.20;63.50;;;;;;4992875;28;20912;-68
2022/07/24 04:59:44;;;;;;;7.13;6.43;;;25.20;63.50;;;;;;4992428;28;20394;-68
2022/07/24 05:02:09;;;;;;;6.18;5.63;;;25.20;63.60;;;;;;4991604;28;20402;-68
2022/07/24 05:04:35;;;;;;;6.60;6.00;;;25.20;63.60;;;;;;4992845;28;20816;-68
2022/07/24 05:07:04;;;;;;;6.70;6.00;;;25.20;63.60;;;;;;4991533;28;20399;-68
2022/07/24 05:09:30;;;;;;;6.50;5.90;;;25.10;63.60;;;;;;4991888;28;20444;-68
2022/07/24 05:11:55;;;;;;;11.20;6.30;;;25.10;63.70;;;;;;4992055;28;20394;-68
2022/07/24 05:14:21;;;;;;;8.00;6.43;;;25.20;66.10;;;;;;4991287;28;20410;-68
2022/07/24 05:16:47;;;;;;;8.73;6.90;;;25.30;65.60;;;;;;4992405;28;20497;-68
2022/07/24 05:19:13;;;;;;;11.90;9.15;;;25.30;66.10;;;;;;4992414;28;20387;-68
2022/07/24 05:21:39;;;;;;;9.37;8.33;;;25.30;66.70;;;;;;4992078;28;20439;-67
2022/07/24 05:24:05;;;;;;;10.02;7.60;;;25.40;66.40;;;;;;4992286;28;20387;-68
2022/07/24 05:26:31;;;;;;;9.48;7.85;;;25.40;66.30;;;;;;4990924;28;20442;-67
2022/07/24 05:29:01;;;;;;;8.88;7.72;;;25.40;66.20;;;;;;4992295;28;20418;-68
2022/07/24 05:31:27;;;;;;;10.25;7.57;;;25.40;66.00;;;;;;4990682;28;20402;-67
2022/07/24 05:33:53;;;;;;;9.32;7.00;;;25.40;66.00;;;;;;4991814;28;20386;-68
2022/07/24 05:36:19;;;;;;;9.13;7.40;;;25.40;65.90;;;;;;4991994;28;20418;-68
2022/07/24 05:38:45;;;;;;;8.65;7.75;;;25.50;65.80;;;;;;4992197;28;20395;-67
2022/07/24 05:41:12;;;;;;;8.65;6.90;;;25.50;65.80;;;;;;4990521;28;20782;-68
2022/07/24 05:43:38;;;;;;;8.27;7.40;;;25.50;65.60;;;;;;4991767;28;20515;-68
2022/07/24 05:46:04;;;;;;;10.57;7.28;;;25.50;65.50;;;;;;4990939;28;20971;-68
2022/07/24 05:48:30;;;;;;;8.52;6.65;;;25.50;65.20;;;;;;4992152;28;20394;-68
2022/07/24 05:50:56;;;;;;;8.52;7.40;;;25.40;65.60;;;;;;4992081;28;20395;-67
2022/07/24 05:53:23;;;;;;;8.30;7.00;;;25.40;65.60;;;;;;4990604;28;20453;-68
2022/07/24 05:55:49;;;;;;;9.27;7.32;;;25.40;65.40;;;;;;4991004;28;20485;-68
2022/07/24 05:58:14;;;;;;;9.25;7.80;;;25.40;65.30;;;;;;4991925;28;20769;-68
2022/07/24 06:00:40;;;;;;;10.65;8.07;;;25.40;65.20;;;;;;4990742;28;20395;-68
2022/07/24 06:03:06;;;;;;;8.77;7.27;;;25.40;65.10;;;;;;4990652;28;20919;-68
2022/07/24 06:05:32;;;;;;;9.45;7.40;;;25.40;65.30;;;;;;4991778;28;20869;-68
2022/07/24 06:07:57;;;;;;;11.10;7.63;;;25.40;65.40;;;;;;4991734;28;20768;-68
2022/07/24 06:10:23;;;;;;;11.33;7.40;;;25.40;65.90;;;;;;4991950;28;20395;-68
2022/07/24 06:12:49;;;;;;;10.65;7.70;;;25.40;65.60;;;;;;4990553;28;20395;-68
2022/07/24 06:15:14;;;;;;;11.37;7.90;;;25.40;66.10;;;;;;4991743;28;20961;-68
2022/07/24 06:17:40;;;;;;;9.93;7.90;;;25.40;65.90;;;;;;4990229;28;20402;-67
2022/07/24 06:20:07;;;;;;;9.05;7.68;;;25.40;65.30;;;;;;4990392;28;20408;-68
2022/07/24 06:22:34;;;;;;;10.90;7.70;;;25.40;65.50;;;;;;4991815;28;20390;-68
2022/07/24 06:24:59;;;;;;;8.90;8.00;;;25.40;65.30;;;;;;4990104;28;20429;-68
2022/07/24 06:27:25;;;;;;;9.15;7.57;;;25.40;65.20;;;;;;4990859;28;20519;-68
2022/07/24 06:29:51;;;;;;;9.27;8.07;;;25.40;65.10;;;;;;4989923;28;21242;-68
2022/07/24 06:32:16;;;;;;;9.13;7.90;;;25.40;64.90;;;;;;4991612;28;20402;-67
2022/07/24 06:34:42;;;;;;;8.50;7.70;;;25.40;65.30;;;;;;4990356;28;20395;-68
2022/07/24 06:37:07;;;;;;;9.00;7.50;;;25.40;64.50;;;;;;4990220;28;20426;-68
2022/07/24 06:39:33;;;;;;;8.00;7.20;;;25.40;64.60;;;;;;4990221;28;20430;-68
2022/07/24 06:41:59;;;;;;;8.33;7.47;;;25.40;64.50;;;;;;4991274;28;20802;-68
2022/07/24 06:44:24;;;;;;;8.87;7.73;;;25.40;64.50;;;;;;4991540;28;20397;-67
2022/07/24 06:46:50;;;;;;;8.38;7.13;;;25.30;64.40;;;;;;4991547;28;20395;-67
2022/07/24 06:49:16;;;;;;;8.07;7.13;;;25.40;64.40;;;;;;4991237;28;20414;-68
2022/07/24 06:51:41;;;;;;;10.07;7.10;;;25.40;64.50;;;;;;4990513;28;20403;-67
2022/07/24 06:54:07;;;;;;;10.43;7.63;;;25.40;64.30;;;;;;4991237;28;20973;-67
2022/07/24 06:56:33;;;;;;;11.90;7.50;;;25.40;64.40;;;;;;4991345;28;20427;-67
2022/07/24 06:58:59;;;;;;;10.90;7.72;;;25.40;64.50;;;;;;4990217;28;20436;-67
2022/07/24 07:01:25;;;;;;;13.02;7.90;;;25.40;64.60;;;;;;4991404;28;20394;-67
2022/07/24 07:03:55;;;;;;;11.75;7.93;;;25.40;64.40;;;;;;4991089;28;20387;-67
2022/07/24 07:06:21;;;;;;;10.15;7.72;;;25.40;64.30;;;;;;4990184;28;20430;-67
2022/07/24 07:08:47;;;;;;;9.98;7.80;;;25.40;64.30;;;;;;4993489;28;20399;-68
2022/07/24 07:11:12;;;;;;;8.75;7.10;;;25.40;64.30;;;;;;4993264;28;20410;-68
2022/07/24 07:13:38;;;;;;;9.50;7.77;;;25.40;64.50;;;;;;4993348;28;20403;-68
2022/07/24 07:16:04;;;;;;;8.40;7.53;;;25.40;64.40;;;;;;4993187;28;20909;-68
2022/07/24 07:18:30;;;;;;;10.15;7.30;;;25.40;64.30;;;;;;4994584;28;20449;-68
2022/07/24 07:20:56;;;;;;;10.15;7.47;;;25.40;64.50;;;;;;4994664;28;20485;-68
2022/07/24 07:23:23;;;;;;;11.65;7.40;;;25.50;64.50;;;;;;4994584;28;20394;-68
2022/07/24 07:25:49;;;;;;;10.07;7.43;;;25.40;64.30;;;;;;4994224;28;20405;-68
2022/07/24 07:28:15;;;;;;;10.18;7.68;;;25.40;64.30;;;;;;4994136;28;20510;-67
2022/07/24 07:30:41;;;;;;;9.82;7.28;;;25.40;64.30;;;;;;4994471;28;20405;-68
2022/07/24 07:33:07;;;;;;;10.50;7.20;;;25.40;64.20;;;;;;4993103;28;20403;-68
2022/07/24 07:35:32;;;;;;;9.02;6.97;;;25.40;64.20;;;;;;4993068;28;20434;-67
2022/07/24 07:37:58;;;;;;;8.33;7.50;;;25.40;64.20;;;;;;4992262;28;20417;-67
2022/07/24 07:40:27;;;;;;;8.77;7.47;;;25.40;64.10;;;;;;4993999;28;20399;-67
2022/07/24 07:42:52;;;;;;;8.05;7.25;;;25.50;64.10;;;;;;4992989;28;20399;-68
2022/07/24 07:45:18;;;;;;;7.77;6.93;;;25.40;64.20;;;;;;4993198;28;20420;-68
2022/07/24 07:47:44;;;;;;;10.50;7.18;;;25.50;64.20;;;;;;4992846;28;20485;-67
2022/07/24 07:50:10;;;;;;;8.15;7.03;;;25.50;64.10;;;;;;4992790;28;20401;-67
2022/07/24 07:52:36;;;;;;;8.07;7.28;;;25.50;64.10;;;;;;4994167;28;20485;-67
2022/07/24 07:55:02;;;;;;;8.03;7.10;;;25.50;64.10;;;;;;4993931;28;20390;-68
2022/07/24 07:57:28;;;;;;;7.95;7.10;;;25.50;64.10;;;;;;4992151;28;20450;-68
2022/07/24 07:59:54;;;;;;;9.03;7.50;;;25.50;64.10;;;;;;4993371;28;20437;-67
2022/07/24 08:02:19;;;;;;;8.13;6.97;;;25.50;64.00;;;;;;4993954;28;20399;-67
2022/07/24 08:04:45;;;;;;;7.70;6.90;;;25.50;64.00;;;;;;4992931;28;20399;-68
2022/07/24 08:07:11;;;;;;;8.02;7.22;;;25.50;64.00;;;;;;4994306;28;20460;-67
2022/07/24 08:09:37;;;;;;;8.17;7.27;;;25.50;64.00;;;;;;4992482;28;20402;-67
2022/07/24 08:12:04;;;;;;;7.67;6.83;;;25.50;64.10;;;;;;4992241;28;20477;-67
2022/07/24 08:14:29;;;;;;;8.18;7.38;;;25.50;64.00;;;;;;4994109;28;20884;-67
2022/07/24 08:16:55;;;;;;;7.93;7.23;;;25.50;64.00;;;;;;4993621;28;20535;-67
2022/07/24 08:19:21;;;;;;;7.90;7.20;;;25.50;64.00;;;;;;4993472;28;20391;-67
2022/07/24 08:21:47;;;;;;;7.50;6.80;;;25.50;64.00;;;;;;4993111;28;20390;-68
2022/07/24 08:24:20;;;;;;;7.78;7.05;;;25.50;64.00;;;;;;4993501;28;20387;-67
2022/07/24 08:26:46;;;;;;;7.85;7.15;;;25.50;64.00;;;;;;4992043;28;20421;-67
2022/07/24 08:29:12;;;;;;;7.80;7.10;;;25.50;63.90;;;;;;4993454;28;20820;-67
2022/07/24 08:31:37;;;;;;;7.75;7.00;;;25.50;63.90;;;;;;4993496;28;20489;-68
2022/07/24 08:34:03;;;;;;;7.85;7.07;;;25.50;63.80;;;;;;4991982;28;20402;-67
2022/07/24 08:36:29;;;;;;;8.00;7.20;;;25.50;63.80;;;;;;4993274;28;20773;-68
2022/07/24 08:38:55;;;;;;;7.80;7.00;;;25.50;63.80;;;;;;4993358;28;20383;-68
2022/07/24 08:41:21;;;;;;;7.63;6.83;;;25.50;63.80;;;;;;4993264;28;20457;-67
2022/07/24 08:43:47;;;;;;;7.78;7.05;;;25.50;63.80;;;;;;4991499;28;20897;-67
2022/07/24 08:46:15;;;;;;;7.53;6.82;;;25.50;63.70;;;;;;4993025;28;20490;-68
2022/07/24 08:48:45;;;;;;;7.90;7.10;;;25.50;63.70;;;;;;4993131;28;20386;-68
2022/07/24 08:51:14;;;;;;;7.40;6.72;;;25.60;63.70;;;;;;4992933;28;20398;-67
2022/07/24 08:53:40;;;;;;;8.00;7.20;;;25.60;63.70;;;;;;4992939;28;20418;-67
2022/07/24 08:56:06;;;;;;;7.63;6.93;;;25.60;63.60;;;;;;4991085;28;20410;-68
2022/07/24 08:58:39;;;;;;;7.50;6.90;;;25.60;64.20;;;;;;4992587;28;20916;-67
2022/07/24 09:01:05;;;;;;;7.93;7.23;;;25.60;63.60;;;;;;4992915;28;20382;-67
2022/07/24 09:03:45;;;;;;;7.50;6.80;;;25.60;63.60;;;;;;4992736;28;20962;-67
2022/07/24 09:06:12;;;;;;;7.70;7.00;;;25.60;63.50;;;;;;4991444;28;20390;-68
2022/07/24 09:08:40;;;;;;;7.47;6.78;;;25.60;63.60;;;;;;4992906;28;20418;-68
2022/07/24 09:11:06;;;;;;;7.60;7.00;;;25.60;63.50;;;;;;4991345;28;20406;-67
2022/07/24 09:16:22;;;;;;;7.55;6.85;;;25.60;63.50;;;;;;4992105;28;20426;-70
2022/07/24 09:19:09;;;;;;;8.38;7.57;;;25.60;63.40;;;;;;4992648;28;20463;-68
2022/07/24 09:21:37;;;;;;;8.38;7.45;;;25.60;64.10;;;;;;4991940;28;20413;-68
2022/07/24 09:24:20;;;;;;;11.88;7.80;;;25.60;64.30;;;;;;4992032;28;20964;-67
2022/07/24 09:26:51;;;;;;;18.05;8.27;;;25.70;66.10;;;;;;4990918;28;20437;-67
2022/07/24 09:29:18;;;;;;;17.52;8.32;;;25.70;66.60;;;;;;4992364;28;20478;-68
2022/07/24 09:31:59;;;;;;;15.25;8.18;;;25.70;67.60;;;;;;4991522;28;20892;-67
2022/07/24 09:34:26;;;;;;;11.55;7.25;;;25.80;68.20;;;;;;4993128;28;20386;-67
2022/07/24 09:37:01;;;;;;;13.98;8.25;;;25.90;65.70;;;;;;4993192;28;20477;-68
2022/07/24 09:39:29;;;;;;;15.32;8.38;;;25.90;67.50;;;;;;4991976;28;20433;-69
2022/07/24 09:41:56;;;;;;;13.38;8.27;;;26.00;67.40;;;;;;4991451;28;20485;-68
2022/07/24 09:44:23;;;;;;;14.05;8.52;;;26.00;68.20;;;;;;4990665;28;20449;-68
2022/07/24 09:47:00;;;;;;;12.50;8.05;;;26.00;67.80;;;;;;4991045;28;20441;-69
2022/07/24 09:49:27;;;;;;;12.85;8.88;;;26.00;67.60;;;;;;4992212;28;20384;-68
2022/07/24 09:52:04;;;;;;;16.02;9.95;;;26.00;67.50;;;;;;4991728;28;20386;-68
2022/07/24 09:54:33;;;;;;;15.43;10.50;;;26.00;68.20;;;;;;4992052;28;20465;-69
2022/07/24 09:57:19;;;;;;;16.40;9.55;;;26.00;67.90;;;;;;4992064;28;20423;-68
2022/07/24 10:00:06;;;;;;;17.08;9.73;;;26.00;68.00;;;;;;4991552;28;20401;-68
2022/07/24 10:02:34;;;;;;;19.75;9.23;;;26.00;68.50;;;;;;4988031;28;20437;-68
2022/07/24 10:05:02;;;;;;;14.50;8.75;;;26.10;69.10;;;;;;4991831;28;20959;-68
2022/07/24 10:07:29;;;;;;;14.35;8.90;;;26.00;68.00;;;;;;4991538;28;20390;-68
2022/07/24 10:09:58;;;;;;;17.27;9.30;;;26.00;69.00;;;;;;4991429;28;20481;-68
2022/07/24 10:12:29;;;;;;;14.85;8.70;;;26.10;69.20;;;;;;4991165;28;20383;-68
2022/07/24 10:14:57;;;;;;;13.50;9.20;;;26.20;68.10;;;;;;4991968;28;20442;-68
2022/07/24 10:17:44;;;;;;;16.13;9.05;;;26.20;68.90;;;;;;4992189;28;20430;-68
2022/07/24 10:20:14;;;;;;;13.48;8.98;;;26.20;68.90;;;;;;4991332;28;20401;-68
2022/07/24 10:23:00;;;;;;;13.00;8.50;;;26.20;68.00;;;;;;4990236;28;20493;-69
2022/07/24 10:25:29;;;;;;;10.43;8.55;;;26.30;67.80;;;;;;4987770;28;20422;-68
2022/07/24 10:28:01;;;;;;;13.30;8.50;;;26.30;67.50;;;;;;4989787;28;20418;-68
2022/07/24 10:30:28;;;;;;;12.27;8.82;;;26.30;67.50;;;;;;4991292;28;20890;-69
2022/07/24 10:32:54;;;;;;;10.85;8.85;;;26.30;67.50;;;;;;4991700;28;20856;-68
2022/07/24 10:35:24;;;;;;;11.20;8.63;;;26.30;67.30;;;;;;4990184;28;20403;-68
2022/07/24 10:38:15;;;;;;;11.63;8.98;;;26.30;67.10;;;;;;4990191;28;20781;-68
2022/07/24 10:40:54;;;;;;;12.55;8.43;;;26.40;67.10;;;;;;4989278;28;20452;-68
2022/07/24 10:43:21;;;;;;;11.02;8.30;;;26.40;67.40;;;;;;4991583;28;20904;-69
2022/07/24 10:45:53;;;;;;;11.85;8.40;;;26.40;66.70;;;;;;4993487;28;20449;-68
2022/07/24 10:48:22;;;;;;;10.73;8.60;;;26.40;66.90;;;;;;4993379;28;20566;-69
2022/07/24 10:50:57;;;;;;;12.95;8.68;;;26.30;67.00;;;;;;4994157;28;20382;-68
2022/07/24 10:53:24;;;;;;;14.38;8.68;;;26.30;66.90;;;;;;5009307;28;21036;-68
2022/07/24 10:55:49;;;;;;;31.95;24.55;;;26.30;66.50;;;;;;4991063;28;20414;-69
2022/07/24 10:58:15;;;;;;;70.93;42.80;;;26.30;66.30;;;;;;4981499;28;20431;-69
2022/07/24 11:00:49;;;;;;;34.45;24.55;;;26.30;66.40;;;;;;4989888;28;20395;-69
2022/07/24 11:03:28;;;;;;;29.67;21.42;;;26.30;66.30;;;;;;4976188;28;20431;-69
2022/07/24 11:06:42;;;;;;;27.98;20.77;;;26.40;66.30;;;;;;4974877;28;20401;-69
2022/07/24 11:09:08;;;;;;;29.38;20.20;;;26.40;66.10;;;;;;4970809;28;20895;-69
2022/07/24 11:11:41;;;;;;;27.35;19.65;;;26.30;65.80;;;;;;4990043;28;20412;-69
2022/07/24 11:14:07;;;;;;;24.00;19.20;;;26.40;66.10;;;;;;4973400;28;20505;-69
2022/07/24 11:16:33;;;;;;;23.67;18.50;;;26.40;66.20;;;;;;4986539;28;20414;-69
2022/07/24 11:18:59;;;;;;;22.65;18.20;;;26.40;66.80;;;;;;4994553;28;20391;-69
2022/07/24 11:21:40;;;;;;;21.55;17.58;;;26.40;67.40;;;;;;4994267;28;20482;-69
2022/07/24 11:24:21;;;;;;;23.02;17.45;;;26.40;67.60;;;;;;4992758;28;20485;-69
2022/07/24 11:26:58;;;;;;;23.77;16.63;;;26.40;67.00;;;;;;4994259;28;20418;-69
2022/07/24 11:29:27;;;;;;;20.92;15.90;;;26.50;66.90;;;;;;4994014;28;20409;-69
2022/07/24 11:31:58;;;;;;;19.58;15.98;;;26.50;66.60;;;;;;4993973;28;20418;-69
2022/07/24 11:34:26;;;;;;;19.63;15.68;;;26.50;66.80;;;;;;4994109;28;20487;-68
2022/07/24 11:36:54;;;;;;;17.08;15.25;;;26.40;66.60;;;;;;4993713;28;20925;-69
2022/07/24 11:39:30;;;;;;;19.55;14.25;;;26.50;66.40;;;;;;4986039;28;20408;-69
2022/07/24 11:41:59;;;;;;;21.85;14.40;;;26.50;65.90;;;;;;4992376;28;20433;-68
2022/07/24 11:44:33;;;;;;;18.73;13.15;;;26.40;65.80;;;;;;4993032;28;20406;-69
2022/07/24 11:47:08;;;;;;;18.20;14.48;;;26.50;65.90;;;;;;4993785;28;20421;-68
2022/07/24 11:49:43;;;;;;;21.02;13.40;;;26.60;68.20;;;;;;4992440;28;20412;-68
2022/07/24 11:52:23;;;;;;;18.10;12.70;;;26.70;67.80;;;;;;4993237;28;20401;-68
2022/07/24 11:54:51;;;;;;;15.63;13.23;;;26.80;68.50;;;;;;4974424;28;20407;-69
2022/07/24 11:57:18;;;;;;;15.83;13.03;;;26.90;69.00;;;;;;4990161;28;20423;-68
2022/07/24 11:59:46;;;;;;;15.20;12.68;;;27.00;68.70;;;;;;4989395;28;20935;-69
2022/07/24 12:02:12;;;;;;;16.92;12.60;;;27.00;70.70;;;;;;4985721;28;20447;-68
2022/07/24 12:04:39;;;;;;;14.75;13.18;;;27.10;71.60;;;;;;4987631;28;20390;-68
2022/07/24 12:07:25;;;;;;;15.35;12.50;;;27.10;71.00;;;;;;4994083;28;20402;-68
2022/07/24 12:09:55;;;;;;;16.02;12.30;;;27.10;71.20;;;;;;4981492;28;20411;-68
2022/07/24 12:12:26;;;;;;;13.50;12.10;;;27.10;71.20;;;;;;4974218;28;20384;-69
2022/07/24 12:15:14;;;;;;;16.63;12.35;;;27.00;68.00;;;;;;4984880;28;20413;-68
2022/07/24 12:17:55;;;;;;;15.65;11.63;;;27.00;69.60;;;;;;4993253;28;20430;-68
2022/07/24 12:20:44;;;;;;;16.00;11.98;;;26.90;69.60;;;;;;4993623;28;20448;-69
2022/07/24 12:23:15;;;;;;;16.67;11.77;;;26.90;69.90;;;;;;4990716;28;20406;-68
2022/07/24 12:25:43;;;;;;;13.95;11.07;;;26.90;70.00;;;;;;4992452;28;20390;-69
2022/07/24 12:28:14;;;;;;;13.80;11.05;;;26.90;69.80;;;;;;4993023;28;20411;-69
2022/07/24 12:30:51;;;;;;;14.80;11.23;;;26.90;69.50;;;;;;4993549;28;20391;-69
2022/07/24 12:33:24;;;;;;;14.90;11.32;;;26.90;68.60;;;;;;4991998;28;20406;-69
2022/07/24 12:35:56;;;;;;;17.17;10.93;;;26.90;68.40;;;;;;4993704;28;20418;-68
2022/07/24 12:38:29;;;;;;;14.18;10.23;;;26.80;67.60;;;;;;4991749;28;20414;-69
2022/07/24 12:41:13;;;;;;;14.45;10.35;;;26.80;67.20;;;;;;4993158;28;20445;-70
2022/07/24 12:43:54;;;;;;;12.88;10.40;;;26.80;66.70;;;;;;4992896;28;20402;-69
2022/07/24 12:46:23;;;;;;;13.45;9.98;;;26.80;66.30;;;;;;4992958;28;20433;-69
2022/07/24 12:48:59;;;;;;;14.25;9.93;;;26.80;66.40;;;;;;4987626;28;20387;-69